Data for 10/02/2013

Time Sea-Level Adjusted Pressure Absolute Pressure Temperature Relative Humidity Dew Point Precipitation   
(mb) (inHg) (mb) (inHg) (C) (F) (%) (C) (F) (mm) (in)
00:05 1020 30.12 849 25.07 4.8 40.6 90 3.3 38 0 0
00:10 1020 30.12 849 25.07 4.8 40.6 91 3.4 38.1 0 0
00:15 1020 30.12 849 25.07 4.7 40.5 91 3.3 38 0 0
00:20 1020 30.12 850 25.1 4.7 40.5 91 3.4 38.1 0 0
00:25 1020 30.12 850 25.1 4.8 40.7 89 3.2 37.7 0 0
00:30 1020 30.12 850 25.1 4.8 40.7 88 2.9 37.3 0 0
00:35 1020 30.12 850 25.1 4.8 40.6 86 2.6 36.7 0 0
00:40 1020 30.12 850 25.1 4.7 40.5 86 2.5 36.6 0 0
00:45 1020 30.12 850 25.1 4.6 40.3 86 2.5 36.6 0 0
00:50 1021 30.15 850 25.1 4.5 40.1 86 2.4 36.4 0 0
00:55 1021 30.15 850 25.1 4.5 40.1 87 2.5 36.6 0 0
01:00 1021 30.15 850 25.1 4.4 40 87 2.5 36.5 0 0
01:05 1021 30.15 850 25.1 4.4 39.9 87 2.4 36.3 .2 0.008
01:10 1021 30.15 850 25.1 4.4 39.9 88 2.5 36.5 0 0
01:15 1021 30.15 850 25.1 4.3 39.8 89 2.7 36.8 0 0
01:20 1021 30.15 850 25.1 4.2 39.5 91 2.9 37.2 0 0
01:25 1021 30.15 850 25.1 4.1 39.4 92 2.9 37.2 0 0
01:30 1021 30.15 850 25.1 4.1 39.4 92 2.9 37.3 0 0
01:35 1021 30.15 850 25.1 4.2 39.5 92 3 37.4 0 0
01:40 1021 30.15 850 25.1 4.1 39.4 92 3 37.4 0 0
01:45 1021 30.15 850 25.1 4.1 39.5 92 2.9 37.2 0 0
01:50 1021 30.15 850 25.1 4.2 39.5 92 3 37.3 0 0
01:55 1021 30.15 850 25.1 4.1 39.4 90 2.7 36.8 0 0
02:00 1021 30.15 850 25.1 4.1 39.4 90 2.7 36.8 0 0
02:05 1021 30.15 850 25.1 4.1 39.4 91 2.7 36.9 0 0
02:10 1021 30.15 850 25.1 4.1 39.5 89 2.5 36.4 0 0
02:15 1021 30.15 850 25.1 4.2 39.6 89 2.6 36.7 0 0
02:20 1021 30.15 850 25.1 4.2 39.5 89 2.6 36.7 0 0
02:25 1021 30.15 851 25.13 4.1 39.5 89 2.5 36.5 0 0
02:30 1021 30.15 851 25.13 4.1 39.5 88 2.4 36.2 0 0
02:35 1021 30.15 851 25.13 4.2 39.5 88 2.3 36.2 0 0
02:40 1021 30.15 851 25.13 4.1 39.4 89 2.4 36.3 0 0
02:45 1021 30.15 850 25.1 4 39.2 89 2.3 36.2 0 0
02:50 1021 30.15 850 25.1 4 39.1 88 2.2 35.9 0 0
02:55 1021 30.15 850 25.1 3.9 39 88 2.1 35.7 0 0
03:00 1021 30.15 850 25.1 3.8 38.9 88 2 35.6 0 0
03:05 1021 30.15 850 25.1 3.6 38.5 89 1.9 35.5 0 0
03:10 1021 30.15 850 25.1 3.3 37.9 91 2 35.6 0 0
03:15 1021 30.15 850 25.1 3.2 37.7 91 1.8 35.3 0 0
03:20 1021 30.15 850 25.1 3.1 37.5 92 1.9 35.3 0 0
03:25 1021 30.15 850 25.1 2.8 37.1 92 1.7 35.1 0 0
03:30 1021 30.15 850 25.1 2.8 37 92 1.6 34.9 0 0
03:35 1021 30.15 851 25.13 2.6 36.8 92 1.4 34.6 0 0
03:40 1021 30.15 851 25.13 2.5 36.5 92 1.3 34.4 0 0
03:45 1021 30.15 851 25.13 2.2 36 92 1.1 34 0 0
03:50 1021 30.15 850 25.1 1.9 35.4 93 0.9 33.6 0 0
03:55 1021 30.15 850 25.1 1.7 35.1 94 0.9 33.5 0 0
04:00 1021 30.15 851 25.13 1.7 35.1 93 0.8 33.4 0 0
04:05 1021 30.15 851 25.13 1.3 34.4 95 0.6 33.1 0 0
04:10 1021 30.15 851 25.13 1.3 34.3 94 0.4 32.8 0 0
04:15 1021 30.15 851 25.13 0.9 33.6 95 0.1 32.2 0 0
04:20 1021 30.15 851 25.13 0.8 33.5 95 0.1 32.2 0 0
04:25 1022 30.18 851 25.13 0.8 33.4 94 -0 32 0 0
04:30 1021 30.15 851 25.13 0.6 33.1 94 -0.2 31.7 0 0
04:35 1021 30.15 851 25.13 0.5 32.8 95 -0.3 31.5 0 0
04:40 1021 30.15 851 25.13 0.3 32.6 95 -0.4 31.4 0 0
04:45 1021 30.15 851 25.13 0.2 32.3 95 -0.6 31 0 0
04:50 1021 30.15 851 25.13 -0.1 31.8 96 -0.7 30.7 0 0
04:55 1021 30.15 851 25.13 -0.2 31.7 96 -0.7 30.7 0 0
05:00 1021 30.15 851 25.13 -0.1 31.8 96 -0.7 30.7 0 0
05:05 1021 30.15 851 25.13 0.1 32.1 96 -0.5 31.1 0 0
05:10 1021 30.15 851 25.13 0.4 32.6 95 -0.4 31.3 0 0
05:15 1021 30.15 851 25.13 0.3 32.5 94 -0.5 31 0 0
05:20 1021 30.15 851 25.13 0 32.1 94 -0.9 30.4 0 0
05:25 1022 30.18 851 25.13 -0.5 31.1 95 -1.1 29.9 0 0
05:30 1022 30.18 851 25.13 -0.6 30.8 96 -1.2 29.8 0 0
05:35 1021 30.15 851 25.13 -0.6 31 96 -1.1 30 0 0
05:40 1021 30.15 851 25.13 -0.7 30.7 95 -1.4 29.6 0 0
05:45 1021 30.15 851 25.13 -0.7 30.7 97 -1.1 30 0 0
05:50 1022 30.18 851 25.13 -0.4 31.4 96 -0.9 30.4 0 0
05:55 1022 30.18 851 25.13 -0.3 31.5 96 -0.8 30.6 0 0
06:00 1022 30.18 851 25.13 -0.3 31.5 96 -0.8 30.5 0 0
06:05 1022 30.18 851 25.13 -0.3 31.4 95 -1.1 30 0 0
06:10 1022 30.18 851 25.13 -0.7 30.8 95 -1.4 29.6 0 0
06:15 1022 30.18 851 25.13 -0.9 30.4 95 -1.6 29.1 0 0
06:20 1022 30.18 851 25.13 -1.3 29.7 96 -1.8 28.8 0 0
06:25 1022 30.18 851 25.13 -1.3 29.6 97 -1.7 28.9 0 0
06:30 1022 30.18 851 25.13 -1 30.2 98 -1.3 29.7 0 0
06:35 1022 30.18 851 25.13 -0.6 30.9 98 -1 30.3 0 0
06:40 1022 30.18 851 25.13 -0.2 31.7 99 -0.4 31.3 0 0
06:45 1022 30.18 851 25.13 -0 31.9 96 -0.6 30.9 0 0
06:50 1022 30.18 851 25.13 -0.4 31.3 98 -0.7 30.7 0 0
06:55 1022 30.18 851 25.13 0.1 32.1 97 -0.3 31.4 0 0
07:00 1022 30.18 851 25.13 -0.3 31.5 96 -0.8 30.5 0 0
07:05 1022 30.18 852 25.16 -0.8 30.6 96 -1.3 29.7 0 0
07:10 1022 30.18 852 25.16 -1 30.2 97 -1.4 29.4 0 0
07:15 1022 30.18 852 25.16 -1 30.1 98 -1.3 29.6 0 0
07:20 1022 30.18 852 25.16 -0.9 30.3 97 -1.4 29.5 0 0
07:25 1023 30.21 852 25.16 -1.2 29.8 98 -1.6 29.2 0 0
07:30 1022 30.18 852 25.16 -1.1 30.1 98 -1.3 29.6 0 0
07:35 1022 30.18 852 25.16 -0.7 30.7 98 -1 30.3 0 0
07:40 1022 30.18 852 25.16 -0.5 31.1 98 -0.8 30.5 0 0
07:45 1022 30.18 852 25.16 -0.3 31.5 98 -0.6 30.9 0 0
07:50 1022 30.18 852 25.16 -0.1 31.7 98 -0.5 31.2 0 0
07:55 1023 30.21 852 25.16 0 32.1 97 -0.3 31.4 0 0
08:00 1023 30.21 852 25.16 0.1 32.1 98 -0.3 31.5 0 0
08:05 1023 30.21 852 25.16 0.2 32.4 97 -0.1 31.8 0 0
08:10 1022 30.18 852 25.16 0.3 32.6 97 -0.1 31.8 0 0
08:15 1022 30.18 852 25.16 0.3 32.5 98 -0.1 31.9 0 0
08:20 1022 30.18 852 25.16 0.4 32.7 98 0 32.1 0 0
08:25 1022 30.18 852 25.16 0.5 32.9 98 0.2 32.3 0 0
08:30 1023 30.21 852 25.16 0.7 33.3 98 0.4 32.8 0 0
08:35 1023 30.21 852 25.16 1.1 34 98 0.8 33.5 0 0
08:40 1023 30.21 852 25.16 1.6 34.8 98 1.2 34.2 0 0
08:45 1023 30.21 852 25.16 2.1 35.8 96 1.6 34.9 0 0
08:50 1023 30.21 852 25.16 2.7 36.8 94 1.8 35.2 0 0
08:55 1022 30.18 852 25.16 3.1 37.5 89 1.4 34.6 0 0
09:00 1023 30.21 852 25.16 3.2 37.8 88 1.5 34.6 0 0
09:05 1023 30.21 852 25.16 3.4 38.2 87 1.5 34.7 0 0
09:10 1023 30.21 852 25.16 3.7 38.6 87 1.6 34.9 0 0
09:15 1023 30.21 852 25.16 3.8 38.9 85 1.6 34.8 0 0
09:20 1023 30.21 852 25.16 3.8 38.9 85 1.6 34.9 0 0
09:25 1023 30.21 852 25.16 3.9 39.1 85 1.7 35.1 .2 0.008
09:30 1023 30.21 852 25.16 4.1 39.3 84 1.6 34.9 0 0
09:35 1022 30.18 852 25.16 4.2 39.6 80 1.1 34 0 0
09:40 1023 30.21 852 25.16 4.3 39.8 82 1.5 34.6 0 0
09:45 1022 30.18 852 25.16 4.4 40 82 1.7 35 0 0
09:50 1022 30.18 852 25.16 4.5 40.1 82 1.7 35.1 0 0
09:55 1022 30.18 852 25.16 4.5 40.1 79 1.3 34.3 0 0
10:00 1022 30.18 852 25.16 4.5 40.1 77 0.8 33.4 0 0
10:05 1023 30.21 852 25.16 4.5 40.1 78 1 33.8 0 0
10:10 1023 30.21 852 25.16 4.6 40.3 80 1.4 34.4 0 0
10:15 1023 30.21 852 25.16 4.8 40.6 78 1.3 34.3 0 0
10:20 1023 30.21 852 25.16 4.7 40.4 78 1.1 34 0 0
10:25 1023 30.21 852 25.16 4.5 40.1 80 1.4 34.5 0 0
10:30 1023 30.21 852 25.16 4.6 40.3 75 0.6 33.1 0 0
10:35 1023 30.21 852 25.16 4.9 40.8 73 0.4 32.7 0 0
10:40 1022 30.18 852 25.16 5.2 41.3 74 0.9 33.6 0 0
10:45 1022 30.18 852 25.16 5.2 41.4 75 1.2 34.1 0 0
10:50 1022 30.18 851 25.13 5.3 41.5 73 0.8 33.5 0 0
10:55 1022 30.18 851 25.13 5.4 41.7 75 1.3 34.4 0 0
11:00 1022 30.18 851 25.13 5.6 42.1 74 1.4 34.5 0 0
11:05 1022 30.18 851 25.13 5.8 42.5 65 -0.2 31.7 0 0
11:10 1022 30.18 851 25.13 5.9 42.7 65 -0.2 31.6 0 0
11:15 1022 30.18 851 25.13 6.1 42.9 65 -0.1 31.8 0 0
11:20 1022 30.18 851 25.13 6.2 43.1 62 -0.5 31 0 0
11:25 1022 30.18 851 25.13 6 42.8 65 -0.1 31.8 0 0
11:30 1022 30.18 851 25.13 6.1 42.9 65 0 32 0 0
11:35 1022 30.18 851 25.13 6 42.8 63 -0.4 31.2 0 0
11:40 1022 30.18 851 25.13 6.2 43.1 62 -0.5 31 0 0
11:45 1022 30.18 851 25.13 6.2 43.1 61 -0.9 30.5 0 0
11:50 1022 30.18 851 25.13 6.3 43.4 64 -0.1 31.9 0 0
11:55 1022 30.18 851 25.13 6.6 43.9 62 -0 31.9 0 0
12:00 1022 30.18 851 25.13 6.6 43.9 60 -0.7 30.8 0 0
12:05 1021 30.15 851 25.13 6.9 44.4 60 -0.4 31.3 0 0
12:10 1021 30.15 851 25.13 7 44.6 61 -0 32 0 0
12:15 1021 30.15 851 25.13 6.9 44.4 65 0.8 33.4 0 0
12:20 1021 30.15 850 25.1 7.2 44.9 59 -0.3 31.4 0 0
12:25 1021 30.15 850 25.1 6.9 44.4 57 -0.9 30.4 0 0
12:30 1021 30.15 850 25.1 7.6 45.6 55 -0.8 30.6 0 0
12:35 1021 30.15 850 25.1 7.7 45.9 59 0.1 32.3 0 0
12:40 1021 30.15 850 25.1 7.7 45.9 55 -0.7 30.7 0 0
12:45 1021 30.15 850 25.1 7.5 45.4 55 -1 30.2 0 0
12:50 1021 30.15 850 25.1 7.2 44.9 58 -0.6 30.9 0 0
12:55 1021 30.15 850 25.1 7.6 45.7 54 -1.1 30.1 0 0
13:00 1021 30.15 850 25.1 7.9 46.2 55 -0.6 31 0 0
13:05 1021 30.15 850 25.1 7.8 46 55 -0.6 31 0 0
13:10 1021 30.15 850 25.1 7.7 45.9 56 -0.5 31 0 0
13:15 1021 30.15 850 25.1 7.8 46 58 0 32 0 0
13:20 1021 30.15 850 25.1 7.8 46.1 61 0.9 33.6 0 0
13:25 1021 30.15 850 25.1 7.8 46.1 55 -0.6 30.9 0 0
13:30 1021 30.15 850 25.1 7.7 45.8 59 0.3 32.5 0 0
13:35 1020 30.12 850 25.1 7.4 45.4 59 -0 32 0 0
13:40 1020 30.12 849 25.07 7.3 45.1 60 0.1 32.2 0 0
13:45 1020 30.12 849 25.07 7.6 45.6 59 0.1 32.1 0 0
13:50 1020 30.12 849 25.07 7.7 45.8 55 -0.8 30.6 0 0
13:55 1020 30.12 849 25.07 7.5 45.6 58 -0 31.9 0 0
14:00 1020 30.12 849 25.07 7.6 45.6 60 0.3 32.5 0 0
14:05 1020 30.12 849 25.07 7.6 45.6 57 -0.5 31.2 0 0
14:10 1020 30.12 849 25.07 7.7 45.9 55 -0.8 30.6 0 0
14:15 1020 30.12 849 25.07 7.7 45.8 56 -0.6 31 0 0
14:20 1020 30.12 849 25.07 7.7 45.9 56 -0.5 31.1 0 0
14:25 1020 30.12 849 25.07 7.8 46.1 57 -0.2 31.6 0 0
14:30 1019 30.09 849 25.07 7.9 46.1 58 0.1 32.3 0 0
14:35 1019 30.09 849 25.07 7.8 46 58 -0 32 0 0
14:40 1019 30.09 849 25.07 7.8 46 61 0.7 33.3 0 0
14:45 1019 30.09 848 25.04 7.7 45.9 56 -0.6 31 0 0
14:50 1019 30.09 848 25.04 7.8 46.1 58 0.2 32.3 0 0
14:55 1019 30.09 848 25.04 7.7 45.9 59 0.2 32.3 0 0
15:00 1019 30.09 848 25.04 7.9 46.2 58 0 32.1 0 0
15:05 1019 30.09 848 25.04 8 46.3 55 -0.4 31.3 0 0
15:10 1019 30.09 848 25.04 7.9 46.1 57 -0.1 31.7 0 0
15:15 1019 30.09 848 25.04 7.9 46.1 60 0.5 32.9 0 0
15:20 1019 30.09 848 25.04 7.9 46.3 55 -0.5 31.1 0 0
15:25 1019 30.09 848 25.04 7.8 46.1 55 -0.7 30.8 0 0
15:30 1019 30.09 848 25.04 7.7 45.9 55 -0.7 30.8 0 0
15:35 1019 30.09 848 25.04 7.8 46 56 -0.4 31.2 0 0
15:40 1019 30.09 848 25.04 8.1 46.6 56 -0 32 0 0
15:45 1019 30.09 848 25.04 8.1 46.6 56 -0.1 31.9 0 0
15:50 1019 30.09 848 25.04 8 46.4 55 -0.4 31.4 0 0
15:55 1018 30.06 848 25.04 8 46.4 56 -0.3 31.5 0 0
16:00 1018 30.06 848 25.04 8 46.4 56 -0.1 31.8 0 0
16:05 1018 30.06 848 25.04 7.9 46.2 59 0.5 32.8 0 0
16:10 1018 30.06 848 25.04 7.7 45.8 62 1 33.7 0 0
16:15 1018 30.06 848 25.04 7.6 45.7 59 0.1 32.2 0 0
16:20 1018 30.06 847 25.01 7.6 45.7 57 -0.4 31.3 0 0
16:25 1018 30.06 847 25.01 7.5 45.6 57 -0.5 31.1 0 0
16:30 1018 30.06 847 25.01 7.6 45.6 58 -0.2 31.7 0 0
16:35 1018 30.06 847 25.01 7.6 45.6 59 0.2 32.3 0 0
16:40 1018 30.06 847 25.01 7.6 45.7 58 -0 32 0 0
16:45 1018 30.06 847 25.01 7.6 45.7 57 -0.3 31.4 0 0
16:50 1018 30.06 847 25.01 7.6 45.7 60 0.3 32.5 0 0
16:55 1018 30.06 847 25.01 7.5 45.5 59 -0.1 31.9 0 0
17:00 1018 30.06 847 25.01 7.5 45.4 57 -0.4 31.3 0 0
17:05 1018 30.06 847 25.01 7.5 45.5 61 0.4 32.8 0 0
17:10 1018 30.06 847 25.01 7.5 45.6 61 0.5 32.9 0 0
17:15 1018 30.06 847 25.01 7.5 45.5 60 0.2 32.4 0 0
17:20 1018 30.06 847 25.01 7.4 45.3 60 0.1 32.1 0 0
17:25 1018 30.06 847 25.01 7.4 45.2 59 -0 31.9 0 0
17:30 1018 30.06 847 25.01 7.3 45.2 59 -0.2 31.7 0 0
17:35 1018 30.06 847 25.01 7.2 45 64 0.9 33.6 0 0
17:40 1018 30.06 847 25.01 7.2 44.9 64 0.8 33.4 0 0
17:45 1018 30.06 847 25.01 7.1 44.8 64 0.8 33.4 0 0
17:50 1018 30.06 847 25.01 7 44.7 67 1.3 34.4 0 0
17:55 1018 30.06 847 25.01 6.9 44.4 68 1.4 34.5 0 0
18:00 1018 30.06 847 25.01 6.7 44.1 69 1.5 34.7 0 0
18:05 1018 30.06 847 25.01 6.6 43.8 71 1.6 34.9 0 0
18:10 1018 30.06 847 25.01 6.5 43.7 71 1.6 34.9 0 0
18:15 1017 30.03 847 25.01 6.4 43.6 71 1.6 34.9 0 0
18:20 1017 30.03 847 25.01 6.4 43.5 71 1.5 34.7 0 0
18:25 1017 30.03 847 25.01 6.4 43.5 71 1.6 34.9 0 0
18:30 1017 30.03 847 25.01 6.3 43.4 75 2.2 36 0 0
18:35 1017 30.03 847 25.01 6.2 43.2 77 2.5 36.5 0 0
18:40 1017 30.03 847 25.01 6.1 42.9 73 1.7 35 0 0
18:45 1017 30.03 846 24.98 6.1 43 69 0.9 33.6 0 0
18:50 1017 30.03 846 24.98 6.2 43.2 67 0.6 33.1 0 0
18:55 1017 30.03 846 24.98 6.3 43.3 67 0.6 33.2 0 0
19:00 1017 30.03 846 24.98 6.3 43.3 68 0.8 33.4 0 0
19:05 1017 30.03 846 24.98 5.9 42.7 77 2.2 36 0 0
19:10 1017 30.03 846 24.98 5.2 41.4 76 1.4 34.6 0 0
19:15 1017 30.03 846 24.98 5.2 41.4 80 2 35.7 0 0
19:20 1017 30.03 846 24.98 4.7 40.4 81 1.7 35.1 0 0
19:25 1017 30.03 846 24.98 4.6 40.2 74 0.4 32.7 0 0
19:30 1017 30.03 846 24.98 5.2 41.3 72 0.6 33 0 0
19:35 1017 30.03 846 24.98 5.4 41.7 74 1.1 34 0 0
19:40 1017 30.03 846 24.98 5 41.1 77 1.3 34.3 0 0
19:45 1017 30.03 846 24.98 4.9 40.7 72 0.3 32.5 0 0
19:50 1017 30.03 846 24.98 5 41.1 72 0.4 32.7 0 0
19:55 1017 30.03 846 24.98 5 41 74 0.7 33.2 0 0
20:00 1017 30.03 846 24.98 4.8 40.7 73 0.4 32.8 0 0
20:05 1017 30.03 846 24.98 4.9 40.9 72 0.3 32.5 0 0
20:10 1017 30.03 846 24.98 4.5 40 76 0.6 33.1 0 0
20:15 1017 30.03 846 24.98 3.8 38.8 76 -0 32 0 0
20:20 1017 30.03 846 24.98 4.4 39.8 71 -0.5 31 0 0
20:25 1017 30.03 846 24.98 5.1 41.1 67 -0.5 31.1 0 0
20:30 1017 30.03 846 24.98 5 41.1 69 -0.1 31.8 0 0
20:35 1017 30.03 846 24.98 4.7 40.5 70 -0.4 31.3 0 0
20:40 1017 30.03 846 24.98 4.6 40.2 70 -0.4 31.3 0 0
20:45 1017 30.03 846 24.98 4.2 39.5 70 -0.7 30.7 0 0
20:50 1017 30.03 846 24.98 4.5 40.1 67 -1.1 30.1 0 0
20:55 1017 30.03 846 24.98 4.7 40.4 66 -1.1 30 0 0
21:00 1017 30.03 846 24.98 4.9 40.8 64 -1.2 29.8 0 0
21:05 1017 30.03 846 24.98 5.4 41.8 61 -1.5 29.3 0 0
21:10 1017 30.03 846 24.98 5.8 42.5 60 -1.4 29.5 0 0
21:15 1017 30.03 846 24.98 5.9 42.6 60 -1.3 29.7 0 0
21:20 1017 30.03 846 24.98 5.8 42.5 58 -1.8 28.8 0 0
21:25 1017 30.03 846 24.98 5.8 42.4 58 -1.8 28.7 0 0
21:30 1017 30.03 846 24.98 5.8 42.4 57 -2.1 28.2 0 0
21:35 1016 30 846 24.98 6.1 42.9 56 -2.1 28.2 0 0
21:40 1016 30 846 24.98 6.3 43.4 55 -2 28.5 0 0
21:45 1016 30 846 24.98 6.3 43.3 56 -1.9 28.5 0 0
21:50 1016 30 846 24.98 6.2 43.1 56 -1.8 28.7 0 0
21:55 1016 30 846 24.98 6.1 43 55 -2.2 28.1 0 0
22:00 1016 30 846 24.98 6.3 43.3 54 -2.3 27.9 0 0
22:05 1016 30 845 24.95 6.4 43.6 54 -2.1 28.3 0 0
22:10 1016 30 845 24.95 6.3 43.3 57 -1.7 29 0 0
22:15 1016 30 845 24.95 6.1 43 55 -2.2 28.1 0 0
22:20 1016 30 845 24.95 6.1 42.9 54 -2.5 27.6 0 0
22:25 1016 30 845 24.95 6 42.9 55 -2.3 27.8 0 0
22:30 1016 30 845 24.95 6 42.8 55 -2.4 27.6 0 0
22:35 1016 30 845 24.95 6 42.8 54 -2.5 27.4 0 0
22:40 1016 30 845 24.95 5.9 42.7 55 -2.3 27.9 0 0
22:45 1016 30 845 24.95 5.9 42.6 55 -2.3 27.8 0 0
22:50 1016 30 845 24.95 5.8 42.4 57 -2 28.4 0 0
22:55 1016 30 845 24.95 5.6 42 58 -1.9 28.5 0 0
23:00 1016 30 845 24.95 5.4 41.7 61 -1.6 29.2 0 0
23:05 1016 30 845 24.95 5.2 41.4 63 -1.3 29.7 0 0
23:10 1016 30 845 24.95 5.1 41.2 64 -1.1 30.1 0 0
23:15 1016 30 845 24.95 5 41 64 -1.1 30 0 0
23:20 1016 30 845 24.95 4.9 40.8 66 -0.9 30.4 0 0
23:25 1016 30 845 24.95 4.8 40.6 68 -0.7 30.8 0 0
23:30 1016 30 845 24.95 4.7 40.5 68 -0.7 30.7 0 0
23:35 1016 30 845 24.95 4.7 40.5 68 -0.6 31 0 0
23:40 1016 30 845 24.95 4.7 40.5 68 -0.6 31 0 0
23:45 1016 30 845 24.95 4.7 40.5 69 -0.5 31 0 0
23:50 1016 30 845 24.95 4.6 40.3 69 -0.5 31.1 0 0
23:55 1016 30 845 24.95 4.7 40.4 68 -0.7 30.7 0 0
24:00 1016 30 845 24.95 4.7 40.5 68 -0.6 30.9 0 0